sensor_id;sensor_type;location;lat;lon;timestamp;P1;durP1;ratioP1;P2;durP2;ratioP2
74152;SDS011;62505;46.070;14.492;2023-04-24T00:00:20;4.70;;;3.40;;
74152;SDS011;62505;46.070;14.492;2023-04-24T00:02:47;3.38;;;2.90;;
74152;SDS011;62505;46.070;14.492;2023-04-24T00:05:17;4.38;;;3.28;;
74152;SDS011;62505;46.070;14.492;2023-04-24T00:07:44;3.70;;;3.15;;
74152;SDS011;62505;46.070;14.492;2023-04-24T00:10:11;3.33;;;3.00;;
74152;SDS011;62505;46.070;14.492;2023-04-24T00:12:38;4.13;;;3.35;;
74152;SDS011;62505;46.070;14.492;2023-04-24T00:15:06;3.15;;;2.85;;
74152;SDS011;62505;46.070;14.492;2023-04-24T00:17:33;4.50;;;3.25;;
74152;SDS011;62505;46.070;14.492;2023-04-24T00:20:00;3.80;;;3.10;;
74152;SDS011;62505;46.070;14.492;2023-04-24T00:22:31;3.80;;;2.97;;
74152;SDS011;62505;46.070;14.492;2023-04-24T00:24:58;4.00;;;3.38;;
74152;SDS011;62505;46.070;14.492;2023-04-24T00:27:24;4.00;;;3.22;;
74152;SDS011;62505;46.070;14.492;2023-04-24T00:29:51;3.47;;;3.17;;
74152;SDS011;62505;46.070;14.492;2023-04-24T00:32:18;4.15;;;3.70;;
74152;SDS011;62505;46.070;14.492;2023-04-24T00:34:45;3.80;;;2.88;;
74152;SDS011;62505;46.070;14.492;2023-04-24T00:37:12;3.85;;;3.25;;
74152;SDS011;62505;46.070;14.492;2023-04-24T00:39:41;3.78;;;3.30;;
74152;SDS011;62505;46.070;14.492;2023-04-24T00:42:08;5.00;;;3.20;;
74152;SDS011;62505;46.070;14.492;2023-04-24T00:44:35;3.30;;;3.00;;
74152;SDS011;62505;46.070;14.492;2023-04-24T00:47:02;5.30;;;3.30;;
74152;SDS011;62505;46.070;14.492;2023-04-24T00:49:29;3.30;;;3.00;;
74152;SDS011;62505;46.070;14.492;2023-04-24T00:51:56;3.65;;;3.30;;
74152;SDS011;62505;46.070;14.492;2023-04-24T00:54:24;4.38;;;3.28;;
74152;SDS011;62505;46.070;14.492;2023-04-24T00:56:52;3.30;;;3.00;;
74152;SDS011;62505;46.070;14.492;2023-04-24T00:59:20;4.07;;;3.25;;
74152;SDS011;62505;46.070;14.492;2023-04-24T01:01:47;3.38;;;2.92;;
74152;SDS011;62505;46.070;14.492;2023-04-24T01:04:14;4.25;;;3.20;;
74152;SDS011;62505;46.070;14.492;2023-04-24T01:06:43;3.20;;;2.88;;
74152;SDS011;62505;46.070;14.492;2023-04-24T01:09:11;3.80;;;3.20;;
74152;SDS011;62505;46.070;14.492;2023-04-24T01:11:39;3.80;;;3.17;;
74152;SDS011;62505;46.070;14.492;2023-04-24T01:14:09;4.22;;;3.20;;
74152;SDS011;62505;46.070;14.492;2023-04-24T01:16:36;5.53;;;3.70;;
74152;SDS011;62505;46.070;14.492;2023-04-24T01:19:04;3.67;;;3.00;;
74152;SDS011;62505;46.070;14.492;2023-04-24T01:21:31;3.45;;;3.10;;
74152;SDS011;62505;46.070;14.492;2023-04-24T01:24:04;3.85;;;3.22;;
74152;SDS011;62505;46.070;14.492;2023-04-24T01:26:33;4.45;;;3.38;;
74152;SDS011;62505;46.070;14.492;2023-04-24T01:29:00;3.90;;;3.47;;
74152;SDS011;62505;46.070;14.492;2023-04-24T01:31:27;3.78;;;3.30;;
74152;SDS011;62505;46.070;14.492;2023-04-24T01:33:56;3.97;;;3.35;;
74152;SDS011;62505;46.070;14.492;2023-04-24T01:36:23;3.70;;;3.30;;
74152;SDS011;62505;46.070;14.492;2023-04-24T01:38:52;4.55;;;3.22;;
74152;SDS011;62505;46.070;14.492;2023-04-24T01:41:20;4.10;;;3.20;;
74152;SDS011;62505;46.070;14.492;2023-04-24T01:43:48;7.53;;;3.67;;
74152;SDS011;62505;46.070;14.492;2023-04-24T01:46:15;4.32;;;3.45;;
74152;SDS011;62505;46.070;14.492;2023-04-24T01:48:42;3.63;;;3.20;;
74152;SDS011;62505;46.070;14.492;2023-04-24T01:51:10;6.35;;;3.40;;
74152;SDS011;62505;46.070;14.492;2023-04-24T01:53:37;3.83;;;3.30;;
74152;SDS011;62505;46.070;14.492;2023-04-24T01:56:04;4.03;;;3.05;;
74152;SDS011;62505;46.070;14.492;2023-04-24T01:58:33;3.83;;;3.15;;
74152;SDS011;62505;46.070;14.492;2023-04-24T02:01:00;3.85;;;3.42;;
74152;SDS011;62505;46.070;14.492;2023-04-24T02:03:27;4.43;;;3.50;;
74152;SDS011;62505;46.070;14.492;2023-04-24T02:05:54;3.53;;;3.15;;
74152;SDS011;62505;46.070;14.492;2023-04-24T02:08:21;3.60;;;3.30;;
74152;SDS011;62505;46.070;14.492;2023-04-24T02:10:49;5.90;;;3.45;;
74152;SDS011;62505;46.070;14.492;2023-04-24T02:13:16;3.78;;;3.20;;
74152;SDS011;62505;46.070;14.492;2023-04-24T02:15:44;4.88;;;3.47;;
74152;SDS011;62505;46.070;14.492;2023-04-24T02:18:11;4.68;;;3.88;;
74152;SDS011;62505;46.070;14.492;2023-04-24T02:20:38;3.38;;;2.90;;
74152;SDS011;62505;46.070;14.492;2023-04-24T02:23:05;4.30;;;3.75;;
74152;SDS011;62505;46.070;14.492;2023-04-24T02:25:33;3.75;;;3.22;;
74152;SDS011;62505;46.070;14.492;2023-04-24T02:27:59;3.65;;;3.15;;
74152;SDS011;62505;46.070;14.492;2023-04-24T02:30:27;4.75;;;3.42;;
74152;SDS011;62505;46.070;14.492;2023-04-24T02:32:55;3.65;;;3.22;;
74152;SDS011;62505;46.070;14.492;2023-04-24T02:35:22;3.70;;;3.30;;
74152;SDS011;62505;46.070;14.492;2023-04-24T02:37:49;3.92;;;3.05;;
74152;SDS011;62505;46.070;14.492;2023-04-24T02:40:16;3.22;;;2.88;;
74152;SDS011;62505;46.070;14.492;2023-04-24T02:42:43;4.07;;;2.85;;
74152;SDS011;62505;46.070;14.492;2023-04-24T02:45:10;3.72;;;2.95;;
74152;SDS011;62505;46.070;14.492;2023-04-24T02:47:37;3.50;;;3.15;;
74152;SDS011;62505;46.070;14.492;2023-04-24T02:50:07;4.28;;;3.72;;
74152;SDS011;62505;46.070;14.492;2023-04-24T02:52:34;4.18;;;3.33;;
74152;SDS011;62505;46.070;14.492;2023-04-24T02:55:01;4.00;;;3.60;;
74152;SDS011;62505;46.070;14.492;2023-04-24T02:57:28;3.63;;;3.20;;
74152;SDS011;62505;46.070;14.492;2023-04-24T02:59:55;4.22;;;3.45;;
74152;SDS011;62505;46.070;14.492;2023-04-24T03:02:22;3.50;;;2.92;;
74152;SDS011;62505;46.070;14.492;2023-04-24T03:04:49;4.30;;;3.13;;
74152;SDS011;62505;46.070;14.492;2023-04-24T03:07:17;3.95;;;3.25;;
74152;SDS011;62505;46.070;14.492;2023-04-24T03:09:45;4.63;;;3.67;;
74152;SDS011;62505;46.070;14.492;2023-04-24T03:12:13;3.53;;;3.00;;
74152;SDS011;62505;46.070;14.492;2023-04-24T03:14:42;4.22;;;3.10;;
74152;SDS011;62505;46.070;14.492;2023-04-24T03:17:09;3.38;;;3.03;;
74152;SDS011;62505;46.070;14.492;2023-04-24T03:19:36;4.00;;;3.30;;
74152;SDS011;62505;46.070;14.492;2023-04-24T03:22:02;4.70;;;3.20;;
74152;SDS011;62505;46.070;14.492;2023-04-24T03:24:31;4.38;;;3.40;;
74152;SDS011;62505;46.070;14.492;2023-04-24T03:26:58;3.13;;;2.78;;
74152;SDS011;62505;46.070;14.492;2023-04-24T03:29:25;3.05;;;2.75;;
74152;SDS011;62505;46.070;14.492;2023-04-24T03:31:52;3.65;;;3.08;;
74152;SDS011;62505;46.070;14.492;2023-04-24T03:34:19;4.47;;;3.25;;
74152;SDS011;62505;46.070;14.492;2023-04-24T03:36:46;4.95;;;3.45;;
74152;SDS011;62505;46.070;14.492;2023-04-24T03:39:13;3.97;;;3.10;;
74152;SDS011;62505;46.070;14.492;2023-04-24T03:41:42;3.95;;;3.53;;
74152;SDS011;62505;46.070;14.492;2023-04-24T03:44:09;3.97;;;3.20;;
74152;SDS011;62505;46.070;14.492;2023-04-24T03:46:36;3.42;;;3.03;;
74152;SDS011;62505;46.070;14.492;2023-04-24T03:49:03;3.45;;;2.85;;
74152;SDS011;62505;46.070;14.492;2023-04-24T03:51:30;3.80;;;3.28;;
74152;SDS011;62505;46.070;14.492;2023-04-24T03:53:57;3.40;;;3.03;;
74152;SDS011;62505;46.070;14.492;2023-04-24T03:56:24;3.60;;;2.90;;
74152;SDS011;62505;46.070;14.492;2023-04-24T03:58:52;3.38;;;3.08;;
74152;SDS011;62505;46.070;14.492;2023-04-24T04:01:19;3.55;;;3.10;;
74152;SDS011;62505;46.070;14.492;2023-04-24T04:03:46;3.80;;;3.45;;
74152;SDS011;62505;46.070;14.492;2023-04-24T04:06:13;3.67;;;3.10;;
74152;SDS011;62505;46.070;14.492;2023-04-24T04:08:40;3.95;;;3.50;;
74152;SDS011;62505;46.070;14.492;2023-04-24T04:11:07;4.32;;;3.30;;
74152;SDS011;62505;46.070;14.492;2023-04-24T04:13:34;3.97;;;3.25;;
74152;SDS011;62505;46.070;14.492;2023-04-24T04:16:02;4.10;;;3.20;;
74152;SDS011;62505;46.070;14.492;2023-04-24T04:18:30;3.75;;;3.00;;
74152;SDS011;62505;46.070;14.492;2023-04-24T04:20:57;3.20;;;2.90;;
74152;SDS011;62505;46.070;14.492;2023-04-24T04:23:26;3.13;;;2.83;;
74152;SDS011;62505;46.070;14.492;2023-04-24T04:25:53;3.58;;;3.10;;
74152;SDS011;62505;46.070;14.492;2023-04-24T04:28:20;4.38;;;3.25;;
74152;SDS011;62505;46.070;14.492;2023-04-24T04:30:47;3.92;;;3.42;;
74152;SDS011;62505;46.070;14.492;2023-04-24T04:33:15;4.05;;;3.17;;
74152;SDS011;62505;46.070;14.492;2023-04-24T04:35:43;3.53;;;2.80;;
74152;SDS011;62505;46.070;14.492;2023-04-24T04:38:13;3.53;;;3.22;;
74152;SDS011;62505;46.070;14.492;2023-04-24T04:40:41;3.75;;;3.20;;
74152;SDS011;62505;46.070;14.492;2023-04-24T04:43:08;4.05;;;3.65;;
74152;SDS011;62505;46.070;14.492;2023-04-24T04:45:36;4.35;;;3.55;;
74152;SDS011;62505;46.070;14.492;2023-04-24T04:48:04;6.05;;;4.32;;
74152;SDS011;62505;46.070;14.492;2023-04-24T04:50:34;6.60;;;4.40;;
74152;SDS011;62505;46.070;14.492;2023-04-24T04:53:01;5.63;;;3.97;;
74152;SDS011;62505;46.070;14.492;2023-04-24T04:55:28;5.80;;;4.32;;
74152;SDS011;62505;46.070;14.492;2023-04-24T04:57:55;5.35;;;4.30;;
74152;SDS011;62505;46.070;14.492;2023-04-24T05:00:22;6.13;;;4.20;;
74152;SDS011;62505;46.070;14.492;2023-04-24T05:02:50;5.05;;;3.95;;
74152;SDS011;62505;46.070;14.492;2023-04-24T05:05:17;5.72;;;4.65;;
74152;SDS011;62505;46.070;14.492;2023-04-24T05:07:46;4.60;;;4.03;;
74152;SDS011;62505;46.070;14.492;2023-04-24T05:10:13;5.38;;;4.25;;
74152;SDS011;62505;46.070;14.492;2023-04-24T05:12:40;6.32;;;4.35;;
74152;SDS011;62505;46.070;14.492;2023-04-24T05:15:07;5.20;;;4.40;;
74152;SDS011;62505;46.070;14.492;2023-04-24T05:17:34;6.78;;;4.40;;
74152;SDS011;62505;46.070;14.492;2023-04-24T05:20:01;6.13;;;4.32;;
74152;SDS011;62505;46.070;14.492;2023-04-24T05:22:30;7.57;;;4.85;;
74152;SDS011;62505;46.070;14.492;2023-04-24T05:24:58;6.47;;;4.78;;
74152;SDS011;62505;46.070;14.492;2023-04-24T05:27:25;7.78;;;4.43;;
74152;SDS011;62505;46.070;14.492;2023-04-24T05:29:52;6.95;;;4.55;;
74152;SDS011;62505;46.070;14.492;2023-04-24T05:32:19;5.60;;;4.55;;
74152;SDS011;62505;46.070;14.492;2023-04-24T05:34:46;5.47;;;4.32;;
74152;SDS011;62505;46.070;14.492;2023-04-24T05:37:13;5.20;;;4.32;;
74152;SDS011;62505;46.070;14.492;2023-04-24T05:39:40;4.95;;;4.00;;
74152;SDS011;62505;46.070;14.492;2023-04-24T05:42:09;6.72;;;5.15;;
74152;SDS011;62505;46.070;14.492;2023-04-24T05:44:36;5.70;;;4.20;;
74152;SDS011;62505;46.070;14.492;2023-04-24T05:47:03;5.43;;;4.03;;
74152;SDS011;62505;46.070;14.492;2023-04-24T05:49:30;6.68;;;4.20;;
74152;SDS011;62505;46.070;14.492;2023-04-24T05:51:57;5.20;;;4.28;;
74152;SDS011;62505;46.070;14.492;2023-04-24T05:54:24;5.93;;;4.20;;
74152;SDS011;62505;46.070;14.492;2023-04-24T05:56:51;4.63;;;4.03;;
74152;SDS011;62505;46.070;14.492;2023-04-24T05:59:20;6.53;;;4.13;;
74152;SDS011;62505;46.070;14.492;2023-04-24T06:01:47;6.15;;;4.38;;
74152;SDS011;62505;46.070;14.492;2023-04-24T06:04:14;4.75;;;4.00;;
74152;SDS011;62505;46.070;14.492;2023-04-24T06:06:41;7.38;;;3.65;;
74152;SDS011;62505;46.070;14.492;2023-04-24T06:09:08;5.80;;;3.92;;
74152;SDS011;62505;46.070;14.492;2023-04-24T06:11:35;9.02;;;4.70;;
74152;SDS011;62505;46.070;14.492;2023-04-24T06:14:02;7.30;;;4.38;;
74152;SDS011;62505;46.070;14.492;2023-04-24T06:16:31;8.80;;;4.10;;
74152;SDS011;62505;46.070;14.492;2023-04-24T06:18:58;5.45;;;4.32;;
74152;SDS011;62505;46.070;14.492;2023-04-24T06:21:25;8.38;;;4.25;;
74152;SDS011;62505;46.070;14.492;2023-04-24T06:23:52;8.27;;;4.53;;
74152;SDS011;62505;46.070;14.492;2023-04-24T06:26:21;6.53;;;4.63;;
74152;SDS011;62505;46.070;14.492;2023-04-24T06:28:50;6.20;;;4.13;;
74152;SDS011;62505;46.070;14.492;2023-04-24T06:31:16;9.27;;;4.50;;
74152;SDS011;62505;46.070;14.492;2023-04-24T06:33:45;8.63;;;4.30;;
74152;SDS011;62505;46.070;14.492;2023-04-24T06:36:12;5.55;;;4.30;;
74152;SDS011;62505;46.070;14.492;2023-04-24T06:38:39;7.63;;;4.35;;
74152;SDS011;62505;46.070;14.492;2023-04-24T06:41:06;5.60;;;3.97;;
74152;SDS011;62505;46.070;14.492;2023-04-24T06:43:33;12.00;;;4.80;;
74152;SDS011;62505;46.070;14.492;2023-04-24T06:46:00;8.75;;;4.32;;
74152;SDS011;62505;46.070;14.492;2023-04-24T06:48:28;6.35;;;4.20;;
74152;SDS011;62505;46.070;14.492;2023-04-24T06:50:56;7.07;;;4.18;;
74152;SDS011;62505;46.070;14.492;2023-04-24T06:53:23;4.53;;;3.92;;
74152;SDS011;62505;46.070;14.492;2023-04-24T06:55:51;9.48;;;4.97;;
74152;SDS011;62505;46.070;14.492;2023-04-24T06:58:18;6.65;;;4.53;;
74152;SDS011;62505;46.070;14.492;2023-04-24T07:00:45;5.22;;;4.30;;
74152;SDS011;62505;46.070;14.492;2023-04-24T07:03:12;8.48;;;3.80;;
74152;SDS011;62505;46.070;14.492;2023-04-24T07:05:39;8.05;;;3.92;;
74152;SDS011;62505;46.070;14.492;2023-04-24T07:08:08;6.25;;;4.40;;
74152;SDS011;62505;46.070;14.492;2023-04-24T07:10:36;7.57;;;4.05;;
74152;SDS011;62505;46.070;14.492;2023-04-24T07:13:03;6.28;;;4.03;;
74152;SDS011;62505;46.070;14.492;2023-04-24T07:15:32;5.43;;;4.18;;
74152;SDS011;62505;46.070;14.492;2023-04-24T07:17:59;7.35;;;4.00;;
74152;SDS011;62505;46.070;14.492;2023-04-24T07:20:26;5.25;;;3.90;;
74152;SDS011;62505;46.070;14.492;2023-04-24T07:22:53;6.65;;;4.25;;
74152;SDS011;62505;46.070;14.492;2023-04-24T07:25:21;5.75;;;4.50;;
74152;SDS011;62505;46.070;14.492;2023-04-24T07:27:48;5.65;;;4.18;;
74152;SDS011;62505;46.070;14.492;2023-04-24T07:30:15;6.25;;;4.10;;
74152;SDS011;62505;46.070;14.492;2023-04-24T07:32:42;6.28;;;4.50;;
74152;SDS011;62505;46.070;14.492;2023-04-24T07:35:09;6.47;;;4.03;;
74152;SDS011;62505;46.070;14.492;2023-04-24T07:37:36;6.53;;;4.07;;
74152;SDS011;62505;46.070;14.492;2023-04-24T07:40:03;6.13;;;4.18;;
74152;SDS011;62505;46.070;14.492;2023-04-24T07:42:33;6.00;;;4.28;;
74152;SDS011;62505;46.070;14.492;2023-04-24T07:45:01;6.90;;;4.57;;
74152;SDS011;62505;46.070;14.492;2023-04-24T07:47:28;11.13;;;4.35;;
74152;SDS011;62505;46.070;14.492;2023-04-24T07:49:58;5.03;;;4.13;;
74152;SDS011;62505;46.070;14.492;2023-04-24T07:52:26;6.10;;;4.55;;
74152;SDS011;62505;46.070;14.492;2023-04-24T07:54:54;7.05;;;4.60;;
74152;SDS011;62505;46.070;14.492;2023-04-24T07:57:23;6.45;;;4.43;;
74152;SDS011;62505;46.070;14.492;2023-04-24T07:59:52;7.45;;;4.30;;
74152;SDS011;62505;46.070;14.492;2023-04-24T08:02:19;6.13;;;4.57;;
74152;SDS011;62505;46.070;14.492;2023-04-24T08:04:51;4.93;;;3.80;;
74152;SDS011;62505;46.070;14.492;2023-04-24T08:07:19;8.93;;;4.63;;
74152;SDS011;62505;46.070;14.492;2023-04-24T08:09:46;6.70;;;4.13;;
74152;SDS011;62505;46.070;14.492;2023-04-24T08:12:13;6.38;;;4.43;;
74152;SDS011;62505;46.070;14.492;2023-04-24T08:14:41;6.82;;;3.97;;
74152;SDS011;62505;46.070;14.492;2023-04-24T08:17:09;7.60;;;4.68;;
74152;SDS011;62505;46.070;14.492;2023-04-24T08:19:36;5.03;;;4.13;;
74152;SDS011;62505;46.070;14.492;2023-04-24T08:22:03;6.20;;;4.63;;
74152;SDS011;62505;46.070;14.492;2023-04-24T08:24:30;6.65;;;4.07;;
74152;SDS011;62505;46.070;14.492;2023-04-24T08:26:57;13.30;;;5.47;;
74152;SDS011;62505;46.070;14.492;2023-04-24T08:29:24;8.65;;;4.82;;
74152;SDS011;62505;46.070;14.492;2023-04-24T08:31:51;8.02;;;4.68;;
74152;SDS011;62505;46.070;14.492;2023-04-24T08:34:21;11.50;;;4.53;;
74152;SDS011;62505;46.070;14.492;2023-04-24T08:36:48;10.45;;;4.72;;
74152;SDS011;62505;46.070;14.492;2023-04-24T08:39:15;5.90;;;4.13;;
74152;SDS011;62505;46.070;14.492;2023-04-24T08:41:44;7.32;;;4.65;;
74152;SDS011;62505;46.070;14.492;2023-04-24T08:44:11;7.72;;;4.65;;
74152;SDS011;62505;46.070;14.492;2023-04-24T08:46:40;6.47;;;3.90;;
74152;SDS011;62505;46.070;14.492;2023-04-24T08:49:09;7.78;;;4.40;;
74152;SDS011;62505;46.070;14.492;2023-04-24T08:51:37;7.43;;;4.00;;
74152;SDS011;62505;46.070;14.492;2023-04-24T08:54:06;7.28;;;4.32;;
74152;SDS011;62505;46.070;14.492;2023-04-24T08:56:33;9.30;;;3.88;;
74152;SDS011;62505;46.070;14.492;2023-04-24T08:59:03;6.85;;;3.80;;
74152;SDS011;62505;46.070;14.492;2023-04-24T09:01:30;6.75;;;4.25;;
74152;SDS011;62505;46.070;14.492;2023-04-24T09:04:00;6.47;;;4.00;;
74152;SDS011;62505;46.070;14.492;2023-04-24T09:06:28;9.63;;;4.50;;
74152;SDS011;62505;46.070;14.492;2023-04-24T09:08:58;5.82;;;3.80;;
74152;SDS011;62505;46.070;14.492;2023-04-24T09:11:26;7.63;;;4.35;;
74152;SDS011;62505;46.070;14.492;2023-04-24T09:13:56;8.73;;;4.18;;
74152;SDS011;62505;46.070;14.492;2023-04-24T09:16:24;6.32;;;4.25;;
74152;SDS011;62505;46.070;14.492;2023-04-24T09:18:52;4.93;;;4.07;;
74152;SDS011;62505;46.070;14.492;2023-04-24T09:21:20;6.40;;;4.10;;
74152;SDS011;62505;46.070;14.492;2023-04-24T09:23:57;8.50;;;4.40;;
74152;SDS011;62505;46.070;14.492;2023-04-24T09:26:26;7.18;;;4.60;;
74152;SDS011;62505;46.070;14.492;2023-04-24T09:28:58;6.93;;;3.97;;
74152;SDS011;62505;46.070;14.492;2023-04-24T09:31:26;8.25;;;4.43;;
74152;SDS011;62505;46.070;14.492;2023-04-24T09:33:56;6.18;;;3.92;;
74152;SDS011;62505;46.070;14.492;2023-04-24T09:36:27;8.57;;;4.30;;
74152;SDS011;62505;46.070;14.492;2023-04-24T09:38:58;5.70;;;4.10;;
74152;SDS011;62505;46.070;14.492;2023-04-24T09:41:26;5.72;;;4.13;;
74152;SDS011;62505;46.070;14.492;2023-04-24T09:43:55;6.63;;;4.07;;
74152;SDS011;62505;46.070;14.492;2023-04-24T09:46:36;8.20;;;4.00;;
74152;SDS011;62505;46.070;14.492;2023-04-24T09:49:07;7.63;;;4.10;;
74152;SDS011;62505;46.070;14.492;2023-04-24T09:51:36;6.53;;;4.28;;
74152;SDS011;62505;46.070;14.492;2023-04-24T09:54:10;4.68;;;3.95;;
74152;SDS011;62505;46.070;14.492;2023-04-24T09:56:42;6.95;;;4.28;;
74152;SDS011;62505;46.070;14.492;2023-04-24T09:59:11;5.78;;;3.80;;
74152;SDS011;62505;46.070;14.492;2023-04-24T10:01:38;7.45;;;3.75;;
74152;SDS011;62505;46.070;14.492;2023-04-24T10:04:14;7.15;;;4.03;;
74152;SDS011;62505;46.070;14.492;2023-04-24T10:06:43;6.25;;;3.80;;
74152;SDS011;62505;46.070;14.492;2023-04-24T10:09:12;6.70;;;4.35;;
74152;SDS011;62505;46.070;14.492;2023-04-24T10:11:41;6.18;;;3.53;;
74152;SDS011;62505;46.070;14.492;2023-04-24T10:14:10;6.10;;;4.38;;
74152;SDS011;62505;46.070;14.492;2023-04-24T10:16:39;5.90;;;4.00;;
74152;SDS011;62505;46.070;14.492;2023-04-24T10:19:06;6.55;;;3.78;;
74152;SDS011;62505;46.070;14.492;2023-04-24T10:21:34;6.45;;;4.40;;
74152;SDS011;62505;46.070;14.492;2023-04-24T10:24:02;5.20;;;4.15;;
74152;SDS011;62505;46.070;14.492;2023-04-24T10:26:34;5.35;;;4.03;;
74152;SDS011;62505;46.070;14.492;2023-04-24T10:29:03;5.18;;;4.03;;
74152;SDS011;62505;46.070;14.492;2023-04-24T10:31:34;7.82;;;4.07;;
74152;SDS011;62505;46.070;14.492;2023-04-24T10:34:03;5.40;;;4.28;;
74152;SDS011;62505;46.070;14.492;2023-04-24T10:36:31;4.78;;;4.28;;
74152;SDS011;62505;46.070;14.492;2023-04-24T10:39:01;5.82;;;3.97;;
74152;SDS011;62505;46.070;14.492;2023-04-24T10:41:30;5.28;;;3.72;;
74152;SDS011;62505;46.070;14.492;2023-04-24T10:44:08;5.78;;;4.38;;
74152;SDS011;62505;46.070;14.492;2023-04-24T10:46:36;5.60;;;4.15;;
74152;SDS011;62505;46.070;14.492;2023-04-24T10:49:03;5.20;;;4.22;;
74152;SDS011;62505;46.070;14.492;2023-04-24T10:51:44;5.55;;;4.22;;
74152;SDS011;62505;46.070;14.492;2023-04-24T11:02:49;6.55;;;4.03;;
74152;SDS011;62505;46.070;14.492;2023-04-24T11:05:21;5.55;;;3.95;;
74152;SDS011;62505;46.070;14.492;2023-04-24T11:10:38;4.70;;;3.85;;
74152;SDS011;62505;46.070;14.492;2023-04-24T11:13:10;6.82;;;4.40;;
74152;SDS011;62505;46.070;14.492;2023-04-24T11:15:41;5.95;;;4.38;;
74152;SDS011;62505;46.070;14.492;2023-04-24T11:18:13;5.40;;;4.00;;
74152;SDS011;62505;46.070;14.492;2023-04-24T11:20:42;8.40;;;4.47;;
74152;SDS011;62505;46.070;14.492;2023-04-24T11:23:11;5.78;;;4.22;;
74152;SDS011;62505;46.070;14.492;2023-04-24T11:25:40;9.55;;;4.32;;
74152;SDS011;62505;46.070;14.492;2023-04-24T11:28:07;8.63;;;4.60;;
74152;SDS011;62505;46.070;14.492;2023-04-24T11:30:42;8.20;;;4.60;;
74152;SDS011;62505;46.070;14.492;2023-04-24T11:33:09;10.80;;;4.75;;
74152;SDS011;62505;46.070;14.492;2023-04-24T11:35:39;9.38;;;4.20;;
74152;SDS011;62505;46.070;14.492;2023-04-24T11:38:06;6.35;;;3.83;;
74152;SDS011;62505;46.070;14.492;2023-04-24T11:40:33;7.50;;;3.90;;
74152;SDS011;62505;46.070;14.492;2023-04-24T11:43:00;5.82;;;3.95;;
74152;SDS011;62505;46.070;14.492;2023-04-24T11:45:30;8.68;;;4.80;;
74152;SDS011;62505;46.070;14.492;2023-04-24T11:47:57;9.65;;;4.63;;
74152;SDS011;62505;46.070;14.492;2023-04-24T11:50:25;5.70;;;3.80;;
74152;SDS011;62505;46.070;14.492;2023-04-24T11:52:55;8.98;;;4.60;;
74152;SDS011;62505;46.070;14.492;2023-04-24T11:55:23;10.02;;;5.22;;
74152;SDS011;62505;46.070;14.492;2023-04-24T11:57:53;9.23;;;4.50;;
74152;SDS011;62505;46.070;14.492;2023-04-24T12:00:22;7.47;;;4.65;;
74152;SDS011;62505;46.070;14.492;2023-04-24T12:02:50;7.32;;;4.28;;
74152;SDS011;62505;46.070;14.492;2023-04-24T12:05:20;8.55;;;4.50;;
74152;SDS011;62505;46.070;14.492;2023-04-24T12:07:48;9.60;;;4.95;;
74152;SDS011;62505;46.070;14.492;2023-04-24T12:10:20;6.75;;;4.45;;
74152;SDS011;62505;46.070;14.492;2023-04-24T12:12:48;12.27;;;4.65;;
74152;SDS011;62505;46.070;14.492;2023-04-24T12:15:16;9.75;;;5.05;;
74152;SDS011;62505;46.070;14.492;2023-04-24T12:17:44;14.57;;;5.22;;
74152;SDS011;62505;46.070;14.492;2023-04-24T12:20:12;13.35;;;4.85;;
74152;SDS011;62505;46.070;14.492;2023-04-24T12:22:44;13.13;;;5.30;;
74152;SDS011;62505;46.070;14.492;2023-04-24T12:25:12;11.05;;;4.78;;
74152;SDS011;62505;46.070;14.492;2023-04-24T12:27:42;10.98;;;5.55;;
74152;SDS011;62505;46.070;14.492;2023-04-24T12:30:10;12.85;;;5.05;;
74152;SDS011;62505;46.070;14.492;2023-04-24T12:32:43;15.60;;;4.95;;
74152;SDS011;62505;46.070;14.492;2023-04-24T12:35:11;12.57;;;4.75;;
74152;SDS011;62505;46.070;14.492;2023-04-24T12:37:41;10.68;;;4.72;;
74152;SDS011;62505;46.070;14.492;2023-04-24T12:40:09;12.82;;;5.07;;
74152;SDS011;62505;46.070;14.492;2023-04-24T12:42:43;12.05;;;4.97;;
74152;SDS011;62505;46.070;14.492;2023-04-24T12:45:11;10.23;;;5.10;;
74152;SDS011;62505;46.070;14.492;2023-04-24T12:47:38;11.48;;;4.90;;
74152;SDS011;62505;46.070;14.492;2023-04-24T12:50:06;7.75;;;4.35;;
74152;SDS011;62505;46.070;14.492;2023-04-24T12:52:34;9.15;;;4.65;;
74152;SDS011;62505;46.070;14.492;2023-04-24T12:55:01;8.18;;;4.80;;
74152;SDS011;62505;46.070;14.492;2023-04-24T12:57:30;9.00;;;4.97;;
74152;SDS011;62505;46.070;14.492;2023-04-24T12:59:58;8.50;;;4.90;;
74152;SDS011;62505;46.070;14.492;2023-04-24T13:02:26;8.38;;;4.75;;
74152;SDS011;62505;46.070;14.492;2023-04-24T13:04:55;8.63;;;4.30;;
74152;SDS011;62505;46.070;14.492;2023-04-24T13:07:22;14.65;;;5.07;;
74152;SDS011;62505;46.070;14.492;2023-04-24T13:09:50;11.70;;;5.47;;
74152;SDS011;62505;46.070;14.492;2023-04-24T13:12:17;10.00;;;5.00;;
74152;SDS011;62505;46.070;14.492;2023-04-24T13:14:46;10.80;;;5.03;;
74152;SDS011;62505;46.070;14.492;2023-04-24T13:17:14;10.77;;;4.57;;
74152;SDS011;62505;46.070;14.492;2023-04-24T13:19:41;15.30;;;4.90;;
74152;SDS011;62505;46.070;14.492;2023-04-24T13:22:10;10.15;;;4.85;;
74152;SDS011;62505;46.070;14.492;2023-04-24T13:24:38;9.30;;;4.95;;
74152;SDS011;62505;46.070;14.492;2023-04-24T13:27:06;12.07;;;5.53;;
74152;SDS011;62505;46.070;14.492;2023-04-24T13:29:34;16.77;;;5.07;;
74152;SDS011;62505;46.070;14.492;2023-04-24T13:32:01;11.50;;;4.63;;
74152;SDS011;62505;46.070;14.492;2023-04-24T13:34:29;11.65;;;4.97;;
74152;SDS011;62505;46.070;14.492;2023-04-24T13:36:56;8.20;;;4.68;;
74152;SDS011;62505;46.070;14.492;2023-04-24T13:39:24;10.68;;;5.15;;
74152;SDS011;62505;46.070;14.492;2023-04-24T13:41:51;9.10;;;4.75;;
74152;SDS011;62505;46.070;14.492;2023-04-24T13:44:19;13.05;;;5.30;;
74152;SDS011;62505;46.070;14.492;2023-04-24T13:46:48;6.97;;;4.53;;
74152;SDS011;62505;46.070;14.492;2023-04-24T13:49:17;9.50;;;4.95;;
74152;SDS011;62505;46.070;14.492;2023-04-24T13:51:46;9.60;;;5.10;;
74152;SDS011;62505;46.070;14.492;2023-04-24T13:54:13;7.70;;;4.72;;
74152;SDS011;62505;46.070;14.492;2023-04-24T13:56:40;9.57;;;5.15;;
74152;SDS011;62505;46.070;14.492;2023-04-24T13:59:07;9.15;;;4.10;;
74152;SDS011;62505;46.070;14.492;2023-04-24T14:01:34;8.73;;;4.45;;
74152;SDS011;62505;46.070;14.492;2023-04-24T14:04:01;9.55;;;4.80;;
74152;SDS011;62505;46.070;14.492;2023-04-24T14:06:28;9.63;;;5.07;;
74152;SDS011;62505;46.070;14.492;2023-04-24T14:08:57;8.90;;;4.90;;
74152;SDS011;62505;46.070;14.492;2023-04-24T14:11:24;12.02;;;4.55;;
74152;SDS011;62505;46.070;14.492;2023-04-24T14:13:53;8.95;;;4.10;;
74152;SDS011;62505;46.070;14.492;2023-04-24T14:16:22;9.27;;;4.15;;
74152;SDS011;62505;46.070;14.492;2023-04-24T14:18:49;8.50;;;4.30;;
74152;SDS011;62505;46.070;14.492;2023-04-24T14:21:16;8.77;;;4.30;;
74152;SDS011;62505;46.070;14.492;2023-04-24T14:23:43;9.18;;;4.90;;
74152;SDS011;62505;46.070;14.492;2023-04-24T14:26:12;8.10;;;4.38;;
74152;SDS011;62505;46.070;14.492;2023-04-24T14:28:39;7.50;;;4.55;;
74152;SDS011;62505;46.070;14.492;2023-04-24T14:31:06;8.13;;;4.43;;
74152;SDS011;62505;46.070;14.492;2023-04-24T14:33:33;8.45;;;4.55;;
74152;SDS011;62505;46.070;14.492;2023-04-24T14:36:00;9.20;;;4.50;;
74152;SDS011;62505;46.070;14.492;2023-04-24T14:38:28;11.18;;;4.72;;
74152;SDS011;62505;46.070;14.492;2023-04-24T14:40:55;6.32;;;4.45;;
74152;SDS011;62505;46.070;14.492;2023-04-24T14:43:23;9.35;;;4.75;;
74152;SDS011;62505;46.070;14.492;2023-04-24T14:45:50;5.75;;;4.13;;
74152;SDS011;62505;46.070;14.492;2023-04-24T14:48:17;10.23;;;4.05;;